»·PEaware :: N698J KSAN-KBUR

N698J :: KSAN-KBUR

FLIGHT INFORMATION

Flight Status: Arrived
Operator: Privately registered:
United States
More flights under this callsign
Pilot: Ahmad S. (5672)
Aircraft: CESSNA 172 SKYHAWK
(C172)
More flights by this aircraft type
Origin: KSAN San Diego Intl-Lindbergh
United States
Destination: KBUR Bob Hope-Burbank
United States
More flights between these airports :: More routes between these airports
Route:
File this flight plan on PilotEdge
Remarks:
Altitude:
(Current/Filed)
6,500ft
Speed:
(Current/Filed)
150kts
Departed: 15-Jan-22 03:55 AM
Arrived: 15-Jan-22 05:03 AM
Distance/Time
Traveled:
106nm/1:08
Distance/Time
To Go:
Arrived

Flight Plot

Page will automatically refresh every two minutes.

Flight plan parsing failed; only flown route is shown


Map Options




Map Legend


Flown Route
Filed Route
Departure Airport
Arrival Airport
Navaid (VOR, NDB)
Fix

Horizontal Profiles

Position Reports

Time Latitude Longitude Heading Altitude Ground
Speed
15-Jan-22 03:42 32.732720 -117.178775 202 17ft 0kts
15-Jan-22 03:43 32.732720 -117.178775 202 17ft 0kts
15-Jan-22 03:44 32.732720 -117.178775 202 17ft 0kts
15-Jan-22 03:45 32.732720 -117.178775 202 17ft 0kts
15-Jan-22 03:46 32.732720 -117.178775 202 17ft 0kts
15-Jan-22 03:47 32.732720 -117.178775 202 17ft 0kts
15-Jan-22 03:48 32.732720 -117.178775 202 17ft 0kts
15-Jan-22 03:49 32.732720 -117.178775 202 17ft 0kts
15-Jan-22 03:50 32.732720 -117.178775 202 17ft 0kts
15-Jan-22 03:51 32.731604 -117.176826 105 17ft 12kts
15-Jan-22 03:52 32.730901 -117.175429 153 16ft 0kts
15-Jan-22 03:53 32.730368 -117.175287 196 18ft 9kts
15-Jan-22 03:54 32.733696 -117.191960 282 309ft 79kts
15-Jan-22 03:55 32.738102 -117.217912 280 1063ft 81kts
15-Jan-22 03:56 32.743194 -117.244674 304 1746ft 85kts
15-Jan-22 03:57 32.766404 -117.248003 2 2401ft 85kts
15-Jan-22 03:58 32.790161 -117.248169 2 3054ft 85kts
15-Jan-22 03:59 32.813997 -117.248831 353 3663ft 87kts
15-Jan-22 04:00 32.835892 -117.262713 330 4237ft 91kts
15-Jan-22 04:01 32.857943 -117.278195 333 4754ft 93kts
15-Jan-22 04:02 32.880498 -117.294360 333 5300ft 95kts
15-Jan-22 04:03 32.903218 -117.310609 332 5826ft 95kts
15-Jan-22 04:04 32.925870 -117.326791 332 6349ft 93kts
15-Jan-22 04:05 32.952061 -117.345538 330 6453ft 125kts
15-Jan-22 04:06 32.982686 -117.367449 331 6454ft 127kts
15-Jan-22 04:07 33.012798 -117.389005 330 6456ft 125kts
15-Jan-22 04:08 33.042785 -117.410487 330 6457ft 126kts
15-Jan-22 04:09 33.072774 -117.432006 330 6458ft 126kts
15-Jan-22 04:10 33.102873 -117.453610 331 6457ft 126kts
15-Jan-22 04:11 33.132945 -117.475224 331 6458ft 126kts
15-Jan-22 04:12 33.163056 -117.496866 331 6457ft 126kts
15-Jan-22 04:13 33.193190 -117.518566 332 6458ft 126kts
15-Jan-22 04:14 33.223377 -117.540311 331 6457ft 126kts
15-Jan-22 04:15 33.253492 -117.562023 332 6458ft 126kts
15-Jan-22 04:16 33.283724 -117.583840 332 6458ft 126kts
15-Jan-22 04:17 33.313857 -117.605596 332 6459ft 126kts
15-Jan-22 04:18 33.344061 -117.627428 332 6459ft 127kts
15-Jan-22 04:19 33.374215 -117.649228 332 6460ft 127kts
15-Jan-22 04:20 33.404511 -117.671144 332 6460ft 127kts
15-Jan-22 04:21 33.434810 -117.693107 332 6462ft 127kts
15-Jan-22 04:22 33.465273 -117.715216 332 6460ft 128kts
15-Jan-22 04:23 33.495475 -117.737105 331 6469ft 128kts
15-Jan-22 04:24 33.525815 -117.759154 330 6467ft 128kts
15-Jan-22 04:25 33.555874 -117.780939 331 6479ft 125kts
15-Jan-22 04:26 33.586215 -117.803125 331 6471ft 127kts
15-Jan-22 04:27 33.616870 -117.825397 331 6457ft 127kts
15-Jan-22 04:28 33.647006 -117.847316 331 6467ft 127kts
15-Jan-22 04:29 33.675226 -117.871830 295 6466ft 126kts
15-Jan-22 04:30 33.686229 -117.912074 286 6466ft 128kts
15-Jan-22 04:31 33.685920 -117.952619 252 6466ft 123kts
15-Jan-22 04:32 33.677276 -117.992787 251 6466ft 125kts
15-Jan-22 04:33 33.668313 -118.033380 251 6464ft 125kts
15-Jan-22 04:34 33.658810 -118.073740 245 6464ft 124kts
15-Jan-22 04:35 33.646497 -118.112271 276 6460ft 126kts
15-Jan-22 04:36 33.666221 -118.145416 320 6464ft 126kts
15-Jan-22 04:37 33.692996 -118.173109 322 6463ft 127kts
15-Jan-22 04:38 33.719567 -118.201289 320 6463ft 127kts
15-Jan-22 04:39 33.746096 -118.229805 320 6462ft 128kts
15-Jan-22 04:40 33.772753 -118.258550 321 6462ft 128kts
15-Jan-22 04:41 33.799433 -118.287374 321 6460ft 129kts
15-Jan-22 04:42 33.826199 -118.316279 321 6462ft 130kts
15-Jan-22 04:43 33.853202 -118.345470 321 6462ft 130kts
15-Jan-22 04:44 33.880185 -118.374669 321 6462ft 131kts
15-Jan-22 04:45 33.907595 -118.404040 321 6462ft 132kts
15-Jan-22 04:46 33.935525 -118.432571 334 6460ft 129kts
15-Jan-22 04:47 33.968191 -118.449042 343 6458ft 127kts
15-Jan-22 04:48 34.001067 -118.465394 342 6460ft 128kts
15-Jan-22 04:49 34.034385 -118.481225 344 6464ft 129kts
15-Jan-22 04:50 34.067872 -118.497631 343 6464ft 129kts
15-Jan-22 04:51 34.102281 -118.514427 342 6440ft 136kts
15-Jan-22 04:52 34.135672 -118.530289 343 6205ft 124kts
15-Jan-22 04:53 34.167600 -118.543359 358 5542ft 119kts
15-Jan-22 04:54 34.197673 -118.547084 2 4729ft 94kts
15-Jan-22 04:55 34.200755 -118.526650 94 3924ft 68kts
15-Jan-22 04:56 34.199550 -118.499790 86 2966ft 87kts
15-Jan-22 04:57 34.199307 -118.474796 86 2449ft 71kts
15-Jan-22 04:58 34.198963 -118.449389 88 2055ft 78kts
15-Jan-22 04:59 34.198609 -118.422800 90 1637ft 78kts
15-Jan-22 05:00 34.198243 -118.396621 89 1225ft 77kts
15-Jan-22 05:01 34.197946 -118.370777 90 830ft 73kts
15-Jan-22 05:02 34.197776 -118.358497 89 714ft 11kts
15-Jan-22 05:03 34.198544 -118.357957 358 714ft 0kts
15-Jan-22 05:04 34.198964 -118.360059 310 716ft 8kts
15-Jan-22 05:05 34.200056 -118.359207 77 718ft 0kts
15-Jan-22 05:06 34.200056 -118.359207 77 718ft 0kts
15-Jan-22 05:07 34.200056 -118.359207 77 718ft 0kts
15-Jan-22 05:08 34.200056 -118.359207 77 718ft 0kts
15-Jan-22 05:09 34.200056 -118.359207 77 718ft 0kts
15-Jan-22 05:10 34.200056 -118.359207 77 718ft 0kts
15-Jan-22 05:11 34.200056 -118.359207 77 718ft 0kts
15-Jan-22 05:12 34.200056 -118.359207 77 718ft 0kts
15-Jan-22 05:13 34.200056 -118.359207 77 718ft 0kts
15-Jan-22 05:14 34.200056 -118.359207 77 718ft 0kts
15-Jan-22 05:15 34.200056 -118.359207 77 718ft 0kts
15-Jan-22 05:16 34.200056 -118.359207 77 718ft 0kts

Navigation Log

Ident Type
Flight plan parsing failed, navigation log unavailable